sensor_id;sensor_type;location;lat;lon;timestamp;P1;durP1;ratioP1;P2;durP2;ratioP2
73107;SDS011;61559;50.476;15.588;2022-10-31T00:02:11;17.20;;;7.30;;
73107;SDS011;61559;50.476;15.588;2022-10-31T00:07:12;15.30;;;6.90;;
73107;SDS011;61559;50.476;15.588;2022-10-31T00:09:43;13.00;;;6.70;;
73107;SDS011;61559;50.476;15.588;2022-10-31T00:14:43;17.00;;;6.40;;
73107;SDS011;61559;50.476;15.588;2022-10-31T00:17:14;13.10;;;6.00;;
73107;SDS011;61559;50.476;15.588;2022-10-31T00:19:46;10.10;;;5.70;;
73107;SDS011;61559;50.476;15.588;2022-10-31T00:22:17;16.00;;;5.60;;
73107;SDS011;61559;50.476;15.588;2022-10-31T00:24:48;12.80;;;6.20;;
73107;SDS011;61559;50.476;15.588;2022-10-31T00:27:19;18.70;;;6.40;;
73107;SDS011;61559;50.476;15.588;2022-10-31T00:29:49;11.80;;;6.40;;
73107;SDS011;61559;50.476;15.588;2022-10-31T00:32:20;11.20;;;6.10;;
73107;SDS011;61559;50.476;15.588;2022-10-31T00:37:21;14.80;;;5.30;;
73107;SDS011;61559;50.476;15.588;2022-10-31T00:39:53;12.90;;;6.10;;
73107;SDS011;61559;50.476;15.588;2022-10-31T00:42:24;9.90;;;5.10;;
73107;SDS011;61559;50.476;15.588;2022-10-31T00:47:25;9.30;;;4.60;;
73107;SDS011;61559;50.476;15.588;2022-10-31T00:49:56;9.70;;;4.90;;
73107;SDS011;61559;50.476;15.588;2022-10-31T00:54:56;11.90;;;6.00;;
73107;SDS011;61559;50.476;15.588;2022-10-31T00:59:56;10.40;;;4.90;;
73107;SDS011;61559;50.476;15.588;2022-10-31T01:04:57;11.60;;;5.30;;
73107;SDS011;61559;50.476;15.588;2022-10-31T01:09:58;9.70;;;4.20;;
73107;SDS011;61559;50.476;15.588;2022-10-31T01:12:30;9.20;;;4.90;;
73107;SDS011;61559;50.476;15.588;2022-10-31T01:15:08;13.20;;;5.90;;
73107;SDS011;61559;50.476;15.588;2022-10-31T01:17:41;10.00;;;6.00;;
73107;SDS011;61559;50.476;15.588;2022-10-31T01:22:42;11.40;;;4.80;;
73107;SDS011;61559;50.476;15.588;2022-10-31T01:27:43;11.90;;;5.40;;
73107;SDS011;61559;50.476;15.588;2022-10-31T01:30:15;7.70;;;4.50;;
73107;SDS011;61559;50.476;15.588;2022-10-31T01:35:15;11.50;;;5.10;;
73107;SDS011;61559;50.476;15.588;2022-10-31T01:37:46;12.30;;;6.20;;
73107;SDS011;61559;50.476;15.588;2022-10-31T01:40:17;14.10;;;5.70;;
73107;SDS011;61559;50.476;15.588;2022-10-31T01:45:17;12.50;;;5.20;;
73107;SDS011;61559;50.476;15.588;2022-10-31T01:47:49;10.00;;;5.30;;
73107;SDS011;61559;50.476;15.588;2022-10-31T01:52:55;10.40;;;5.10;;
73107;SDS011;61559;50.476;15.588;2022-10-31T01:55:28;11.80;;;4.80;;
73107;SDS011;61559;50.476;15.588;2022-10-31T01:58:04;11.60;;;5.90;;
73107;SDS011;61559;50.476;15.588;2022-10-31T02:00:38;16.50;;;6.20;;
73107;SDS011;61559;50.476;15.588;2022-10-31T02:03:12;11.30;;;4.80;;
73107;SDS011;61559;50.476;15.588;2022-10-31T02:05:43;14.10;;;5.90;;
73107;SDS011;61559;50.476;15.588;2022-10-31T02:08:16;9.40;;;5.10;;
73107;SDS011;61559;50.476;15.588;2022-10-31T02:10:52;11.30;;;5.20;;
73107;SDS011;61559;50.476;15.588;2022-10-31T02:13:23;9.10;;;4.60;;
73107;SDS011;61559;50.476;15.588;2022-10-31T02:15:55;10.60;;;5.40;;
73107;SDS011;61559;50.476;15.588;2022-10-31T02:18:28;8.80;;;4.60;;
73107;SDS011;61559;50.476;15.588;2022-10-31T02:21:01;12.00;;;4.50;;
73107;SDS011;61559;50.476;15.588;2022-10-31T02:32:46;11.00;;;4.90;;
73107;SDS011;61559;50.476;15.588;2022-10-31T02:35:31;7.80;;;4.00;;
73107;SDS011;61559;50.476;15.588;2022-10-31T02:38:12;9.90;;;4.40;;
73107;SDS011;61559;50.476;15.588;2022-10-31T02:40:53;12.40;;;4.50;;
73107;SDS011;61559;50.476;15.588;2022-10-31T02:43:34;12.40;;;5.20;;
73107;SDS011;61559;50.476;15.588;2022-10-31T02:46:13;10.80;;;4.70;;
73107;SDS011;61559;50.476;15.588;2022-10-31T02:48:48;8.90;;;4.40;;
73107;SDS011;61559;50.476;15.588;2022-10-31T02:51:24;10.50;;;5.10;;
73107;SDS011;61559;50.476;15.588;2022-10-31T02:53:56;10.00;;;4.10;;
73107;SDS011;61559;50.476;15.588;2022-10-31T02:56:27;16.70;;;5.60;;
73107;SDS011;61559;50.476;15.588;2022-10-31T02:58:58;12.30;;;5.50;;
73107;SDS011;61559;50.476;15.588;2022-10-31T03:04:40;9.10;;;4.10;;
73107;SDS011;61559;50.476;15.588;2022-10-31T03:07:28;10.90;;;4.70;;
73107;SDS011;61559;50.476;15.588;2022-10-31T03:10:07;9.40;;;4.20;;
73107;SDS011;61559;50.476;15.588;2022-10-31T03:12:47;10.00;;;4.70;;
73107;SDS011;61559;50.476;15.588;2022-10-31T03:15:29;11.10;;;4.90;;
73107;SDS011;61559;50.476;15.588;2022-10-31T03:18:03;10.30;;;5.00;;
73107;SDS011;61559;50.476;15.588;2022-10-31T03:20:38;11.50;;;4.80;;
73107;SDS011;61559;50.476;15.588;2022-10-31T03:23:13;11.10;;;4.40;;
73107;SDS011;61559;50.476;15.588;2022-10-31T03:25:46;8.30;;;3.80;;
73107;SDS011;61559;50.476;15.588;2022-10-31T03:28:21;6.50;;;3.70;;
73107;SDS011;61559;50.476;15.588;2022-10-31T03:31:03;10.90;;;4.40;;
73107;SDS011;61559;50.476;15.588;2022-10-31T03:33:37;12.90;;;4.60;;
73107;SDS011;61559;50.476;15.588;2022-10-31T03:36:10;11.70;;;4.40;;
73107;SDS011;61559;50.476;15.588;2022-10-31T03:38:42;6.60;;;3.80;;
73107;SDS011;61559;50.476;15.588;2022-10-31T03:41:18;10.20;;;4.10;;
73107;SDS011;61559;50.476;15.588;2022-10-31T03:43:54;8.80;;;4.40;;
73107;SDS011;61559;50.476;15.588;2022-10-31T03:46:27;10.90;;;4.80;;
73107;SDS011;61559;50.476;15.588;2022-10-31T03:51:29;10.20;;;4.30;;
73107;SDS011;61559;50.476;15.588;2022-10-31T03:54:07;9.30;;;4.70;;
73107;SDS011;61559;50.476;15.588;2022-10-31T03:56:43;10.00;;;4.30;;
73107;SDS011;61559;50.476;15.588;2022-10-31T03:59:19;11.80;;;5.40;;
73107;SDS011;61559;50.476;15.588;2022-10-31T04:01:55;12.10;;;4.60;;
73107;SDS011;61559;50.476;15.588;2022-10-31T04:04:31;7.90;;;4.60;;
73107;SDS011;61559;50.476;15.588;2022-10-31T04:07:04;9.90;;;4.50;;
73107;SDS011;61559;50.476;15.588;2022-10-31T04:09:37;9.80;;;4.30;;
73107;SDS011;61559;50.476;15.588;2022-10-31T04:12:11;7.40;;;4.40;;
73107;SDS011;61559;50.476;15.588;2022-10-31T04:14:46;12.20;;;4.80;;
73107;SDS011;61559;50.476;15.588;2022-10-31T04:17:19;10.70;;;4.40;;
73107;SDS011;61559;50.476;15.588;2022-10-31T04:19:52;8.20;;;4.50;;
73107;SDS011;61559;50.476;15.588;2022-10-31T04:22:23;12.50;;;5.30;;
73107;SDS011;61559;50.476;15.588;2022-10-31T04:24:54;12.60;;;4.80;;
73107;SDS011;61559;50.476;15.588;2022-10-31T04:27:25;8.80;;;4.50;;
73107;SDS011;61559;50.476;15.588;2022-10-31T04:29:56;10.70;;;4.00;;
73107;SDS011;61559;50.476;15.588;2022-10-31T04:32:27;7.60;;;4.70;;
73107;SDS011;61559;50.476;15.588;2022-10-31T04:34:58;12.20;;;5.10;;
73107;SDS011;61559;50.476;15.588;2022-10-31T04:39:59;11.50;;;4.30;;
73107;SDS011;61559;50.476;15.588;2022-10-31T04:42:31;9.30;;;4.20;;
73107;SDS011;61559;50.476;15.588;2022-10-31T04:45:01;8.70;;;4.00;;
73107;SDS011;61559;50.476;15.588;2022-10-31T04:47:33;11.60;;;4.40;;
73107;SDS011;61559;50.476;15.588;2022-10-31T04:50:05;13.90;;;4.60;;
73107;SDS011;61559;50.476;15.588;2022-10-31T04:52:39;7.70;;;4.00;;
73107;SDS011;61559;50.476;15.588;2022-10-31T04:55:11;13.10;;;5.10;;
73107;SDS011;61559;50.476;15.588;2022-10-31T04:57:43;13.30;;;5.00;;
73107;SDS011;61559;50.476;15.588;2022-10-31T05:00:16;11.40;;;6.20;;
73107;SDS011;61559;50.476;15.588;2022-10-31T05:02:49;7.80;;;4.70;;
73107;SDS011;61559;50.476;15.588;2022-10-31T05:05:22;11.60;;;4.90;;
73107;SDS011;61559;50.476;15.588;2022-10-31T05:07:56;10.30;;;4.70;;
73107;SDS011;61559;50.476;15.588;2022-10-31T05:10:28;12.30;;;5.40;;
73107;SDS011;61559;50.476;15.588;2022-10-31T05:13:00;10.30;;;4.70;;
73107;SDS011;61559;50.476;15.588;2022-10-31T05:15:35;7.40;;;4.60;;
73107;SDS011;61559;50.476;15.588;2022-10-31T05:18:06;9.10;;;4.60;;
73107;SDS011;61559;50.476;15.588;2022-10-31T05:23:07;8.90;;;4.50;;
73107;SDS011;61559;50.476;15.588;2022-10-31T05:25:39;7.30;;;4.30;;
73107;SDS011;61559;50.476;15.588;2022-10-31T05:28:10;8.90;;;3.70;;
73107;SDS011;61559;50.476;15.588;2022-10-31T05:30:41;11.80;;;4.40;;
73107;SDS011;61559;50.476;15.588;2022-10-31T05:33:12;7.60;;;3.60;;
73107;SDS011;61559;50.476;15.588;2022-10-31T05:35:43;9.70;;;4.40;;
73107;SDS011;61559;50.476;15.588;2022-10-31T05:38:15;10.60;;;4.40;;
73107;SDS011;61559;50.476;15.588;2022-10-31T05:40:46;15.10;;;5.30;;
73107;SDS011;61559;50.476;15.588;2022-10-31T05:43:17;10.20;;;4.80;;
73107;SDS011;61559;50.476;15.588;2022-10-31T05:45:51;9.20;;;4.60;;
73107;SDS011;61559;50.476;15.588;2022-10-31T05:48:22;8.40;;;4.50;;
73107;SDS011;61559;50.476;15.588;2022-10-31T05:50:53;10.30;;;4.40;;
73107;SDS011;61559;50.476;15.588;2022-10-31T05:53:24;8.90;;;4.70;;
73107;SDS011;61559;50.476;15.588;2022-10-31T05:55:56;11.70;;;4.80;;
73107;SDS011;61559;50.476;15.588;2022-10-31T05:58:27;12.50;;;5.50;;
73107;SDS011;61559;50.476;15.588;2022-10-31T06:00:58;7.20;;;4.40;;
73107;SDS011;61559;50.476;15.588;2022-10-31T06:03:28;10.40;;;4.10;;
73107;SDS011;61559;50.476;15.588;2022-10-31T06:05:59;7.70;;;4.40;;
73107;SDS011;61559;50.476;15.588;2022-10-31T06:08:30;7.00;;;4.00;;
73107;SDS011;61559;50.476;15.588;2022-10-31T06:11:01;7.20;;;4.20;;
73107;SDS011;61559;50.476;15.588;2022-10-31T06:13:32;9.50;;;4.30;;
73107;SDS011;61559;50.476;15.588;2022-10-31T06:16:04;10.80;;;4.40;;
73107;SDS011;61559;50.476;15.588;2022-10-31T06:18:35;8.60;;;4.10;;
73107;SDS011;61559;50.476;15.588;2022-10-31T06:21:06;6.40;;;3.80;;
73107;SDS011;61559;50.476;15.588;2022-10-31T06:23:42;8.80;;;4.50;;
73107;SDS011;61559;50.476;15.588;2022-10-31T06:26:13;7.40;;;4.40;;
73107;SDS011;61559;50.476;15.588;2022-10-31T06:28:44;6.70;;;4.30;;
73107;SDS011;61559;50.476;15.588;2022-10-31T06:31:14;13.30;;;6.00;;
73107;SDS011;61559;50.476;15.588;2022-10-31T06:33:45;10.70;;;5.60;;
73107;SDS011;61559;50.476;15.588;2022-10-31T06:36:17;11.40;;;5.30;;
73107;SDS011;61559;50.476;15.588;2022-10-31T06:38:48;8.30;;;4.80;;
73107;SDS011;61559;50.476;15.588;2022-10-31T06:41:19;11.70;;;4.90;;
73107;SDS011;61559;50.476;15.588;2022-10-31T06:43:50;13.00;;;7.10;;
73107;SDS011;61559;50.476;15.588;2022-10-31T06:46:20;12.00;;;7.30;;
73107;SDS011;61559;50.476;15.588;2022-10-31T06:48:51;20.50;;;9.00;;
73107;SDS011;61559;50.476;15.588;2022-10-31T06:51:22;15.80;;;6.80;;
73107;SDS011;61559;50.476;15.588;2022-10-31T06:53:53;10.70;;;5.40;;
73107;SDS011;61559;50.476;15.588;2022-10-31T06:56:24;11.00;;;4.40;;
73107;SDS011;61559;50.476;15.588;2022-10-31T06:58:55;13.90;;;4.20;;
73107;SDS011;61559;50.476;15.588;2022-10-31T07:01:26;9.30;;;4.50;;
73107;SDS011;61559;50.476;15.588;2022-10-31T07:03:57;13.20;;;5.40;;
73107;SDS011;61559;50.476;15.588;2022-10-31T07:08:57;7.20;;;4.20;;
73107;SDS011;61559;50.476;15.588;2022-10-31T07:13:58;7.80;;;4.40;;
73107;SDS011;61559;50.476;15.588;2022-10-31T07:16:29;10.80;;;5.20;;
73107;SDS011;61559;50.476;15.588;2022-10-31T07:19:00;11.50;;;4.60;;
73107;SDS011;61559;50.476;15.588;2022-10-31T07:21:30;11.10;;;4.70;;
73107;SDS011;61559;50.476;15.588;2022-10-31T07:24:01;9.30;;;5.00;;
73107;SDS011;61559;50.476;15.588;2022-10-31T07:26:33;9.30;;;4.40;;
73107;SDS011;61559;50.476;15.588;2022-10-31T07:29:04;7.00;;;4.40;;
73107;SDS011;61559;50.476;15.588;2022-10-31T07:34:04;9.50;;;5.10;;
73107;SDS011;61559;50.476;15.588;2022-10-31T07:36:35;9.50;;;5.00;;
73107;SDS011;61559;50.476;15.588;2022-10-31T07:39:06;9.10;;;5.20;;
73107;SDS011;61559;50.476;15.588;2022-10-31T07:41:38;13.50;;;5.30;;
73107;SDS011;61559;50.476;15.588;2022-10-31T07:44:10;9.60;;;6.00;;
73107;SDS011;61559;50.476;15.588;2022-10-31T07:49:11;10.20;;;4.60;;
73107;SDS011;61559;50.476;15.588;2022-10-31T07:51:42;11.90;;;5.80;;
73107;SDS011;61559;50.476;15.588;2022-10-31T07:54:13;8.50;;;5.40;;
73107;SDS011;61559;50.476;15.588;2022-10-31T07:56:45;15.20;;;6.30;;
73107;SDS011;61559;50.476;15.588;2022-10-31T07:59:16;9.90;;;6.20;;
73107;SDS011;61559;50.476;15.588;2022-10-31T08:01:47;10.60;;;5.20;;
73107;SDS011;61559;50.476;15.588;2022-10-31T08:04:18;11.40;;;5.30;;
73107;SDS011;61559;50.476;15.588;2022-10-31T08:06:49;10.70;;;5.70;;
73107;SDS011;61559;50.476;15.588;2022-10-31T08:09:21;10.30;;;5.50;;
73107;SDS011;61559;50.476;15.588;2022-10-31T08:11:52;12.60;;;5.60;;
73107;SDS011;61559;50.476;15.588;2022-10-31T08:14:23;10.00;;;5.30;;
73107;SDS011;61559;50.476;15.588;2022-10-31T08:16:54;10.20;;;5.00;;
73107;SDS011;61559;50.476;15.588;2022-10-31T08:19:25;9.90;;;5.10;;
73107;SDS011;61559;50.476;15.588;2022-10-31T08:21:56;8.80;;;4.70;;
73107;SDS011;61559;50.476;15.588;2022-10-31T08:24:28;13.30;;;4.80;;
73107;SDS011;61559;50.476;15.588;2022-10-31T08:29:28;8.00;;;4.50;;
73107;SDS011;61559;50.476;15.588;2022-10-31T08:36:59;9.70;;;4.40;;
73107;SDS011;61559;50.476;15.588;2022-10-31T08:41:59;11.40;;;5.50;;
73107;SDS011;61559;50.476;15.588;2022-10-31T08:46:59;11.30;;;5.60;;
73107;SDS011;61559;50.476;15.588;2022-10-31T08:49:30;15.00;;;6.80;;
73107;SDS011;61559;50.476;15.588;2022-10-31T08:52:01;12.70;;;6.50;;
73107;SDS011;61559;50.476;15.588;2022-10-31T08:54:38;13.50;;;6.30;;
73107;SDS011;61559;50.476;15.588;2022-10-31T08:57:09;14.50;;;7.00;;
73107;SDS011;61559;50.476;15.588;2022-10-31T08:59:40;12.10;;;6.70;;
73107;SDS011;61559;50.476;15.588;2022-10-31T09:02:11;14.10;;;7.40;;
73107;SDS011;61559;50.476;15.588;2022-10-31T09:04:42;13.90;;;7.30;;
73107;SDS011;61559;50.476;15.588;2022-10-31T09:07:13;14.70;;;7.70;;
73107;SDS011;61559;50.476;15.588;2022-10-31T09:09:48;16.30;;;7.00;;
73107;SDS011;61559;50.476;15.588;2022-10-31T09:12:19;20.70;;;7.80;;
73107;SDS011;61559;50.476;15.588;2022-10-31T09:14:51;18.40;;;9.20;;
73107;SDS011;61559;50.476;15.588;2022-10-31T09:17:22;17.90;;;8.10;;
73107;SDS011;61559;50.476;15.588;2022-10-31T09:19:54;19.10;;;8.60;;
73107;SDS011;61559;50.476;15.588;2022-10-31T09:22:25;18.10;;;8.70;;
73107;SDS011;61559;50.476;15.588;2022-10-31T09:24:56;16.90;;;9.80;;
73107;SDS011;61559;50.476;15.588;2022-10-31T09:29:57;16.50;;;9.00;;
73107;SDS011;61559;50.476;15.588;2022-10-31T09:32:28;17.50;;;9.70;;
73107;SDS011;61559;50.476;15.588;2022-10-31T09:34:59;14.40;;;8.60;;
73107;SDS011;61559;50.476;15.588;2022-10-31T09:37:30;21.80;;;10.70;;
73107;SDS011;61559;50.476;15.588;2022-10-31T09:40:01;14.90;;;9.10;;
73107;SDS011;61559;50.476;15.588;2022-10-31T09:45:29;18.20;;;9.10;;
73107;SDS011;61559;50.476;15.588;2022-10-31T09:48:14;16.90;;;8.80;;
73107;SDS011;61559;50.476;15.588;2022-10-31T09:50:57;15.90;;;9.20;;
73107;SDS011;61559;50.476;15.588;2022-10-31T09:53:33;14.70;;;9.10;;
73107;SDS011;61559;50.476;15.588;2022-10-31T09:56:08;17.10;;;9.20;;
73107;SDS011;61559;50.476;15.588;2022-10-31T09:58:43;16.90;;;9.60;;
73107;SDS011;61559;50.476;15.588;2022-10-31T10:01:20;16.70;;;8.90;;
73107;SDS011;61559;50.476;15.588;2022-10-31T10:03:59;17.90;;;9.40;;
73107;SDS011;61559;50.476;15.588;2022-10-31T10:06:46;16.40;;;9.40;;
73107;SDS011;61559;50.476;15.588;2022-10-31T10:09:19;17.90;;;10.10;;
73107;SDS011;61559;50.476;15.588;2022-10-31T10:12:00;16.50;;;9.20;;
73107;SDS011;61559;50.476;15.588;2022-10-31T10:14:42;18.00;;;10.60;;
73107;SDS011;61559;50.476;15.588;2022-10-31T10:17:24;15.20;;;8.10;;
73107;SDS011;61559;50.476;15.588;2022-10-31T10:20:10;14.60;;;9.30;;
73107;SDS011;61559;50.476;15.588;2022-10-31T10:23:02;13.10;;;8.10;;
73107;SDS011;61559;50.476;15.588;2022-10-31T10:25:52;12.70;;;8.00;;
73107;SDS011;61559;50.476;15.588;2022-10-31T10:28:29;14.40;;;8.50;;
73107;SDS011;61559;50.476;15.588;2022-10-31T10:31:07;13.10;;;7.90;;
73107;SDS011;61559;50.476;15.588;2022-10-31T10:33:43;14.30;;;8.30;;
73107;SDS011;61559;50.476;15.588;2022-10-31T10:36:21;15.00;;;8.30;;
73107;SDS011;61559;50.476;15.588;2022-10-31T10:38:58;15.50;;;7.80;;
73107;SDS011;61559;50.476;15.588;2022-10-31T10:41:33;14.60;;;8.30;;
73107;SDS011;61559;50.476;15.588;2022-10-31T10:44:07;15.00;;;8.40;;
73107;SDS011;61559;50.476;15.588;2022-10-31T10:46:41;15.80;;;8.00;;
73107;SDS011;61559;50.476;15.588;2022-10-31T10:49:35;15.20;;;8.40;;
73107;SDS011;61559;50.476;15.588;2022-10-31T10:52:16;15.50;;;8.80;;
73107;SDS011;61559;50.476;15.588;2022-10-31T10:55:14;13.90;;;7.50;;
73107;SDS011;61559;50.476;15.588;2022-10-31T10:57:54;14.20;;;8.20;;
73107;SDS011;61559;50.476;15.588;2022-10-31T11:02:59;12.50;;;7.70;;
73107;SDS011;61559;50.476;15.588;2022-10-31T11:05:36;17.50;;;8.20;;
73107;SDS011;61559;50.476;15.588;2022-10-31T11:13:20;15.60;;;7.70;;
73107;SDS011;61559;50.476;15.588;2022-10-31T11:15:55;14.10;;;7.90;;
73107;SDS011;61559;50.476;15.588;2022-10-31T11:18:29;11.40;;;7.30;;
73107;SDS011;61559;50.476;15.588;2022-10-31T11:21:02;14.50;;;8.40;;
73107;SDS011;61559;50.476;15.588;2022-10-31T11:23:34;12.10;;;7.10;;
73107;SDS011;61559;50.476;15.588;2022-10-31T11:26:05;17.10;;;8.70;;
73107;SDS011;61559;50.476;15.588;2022-10-31T11:28:56;13.90;;;7.60;;
73107;SDS011;61559;50.476;15.588;2022-10-31T11:34:01;12.30;;;7.40;;
73107;SDS011;61559;50.476;15.588;2022-10-31T11:36:35;12.20;;;7.90;;
73107;SDS011;61559;50.476;15.588;2022-10-31T11:39:13;16.80;;;7.80;;
73107;SDS011;61559;50.476;15.588;2022-10-31T11:41:48;13.50;;;7.70;;
73107;SDS011;61559;50.476;15.588;2022-10-31T11:44:21;13.90;;;8.10;;
73107;SDS011;61559;50.476;15.588;2022-10-31T11:46:56;16.90;;;8.70;;
73107;SDS011;61559;50.476;15.588;2022-10-31T11:49:30;12.50;;;8.00;;
73107;SDS011;61559;50.476;15.588;2022-10-31T11:52:05;15.20;;;8.60;;
73107;SDS011;61559;50.476;15.588;2022-10-31T11:54:44;11.20;;;7.60;;
73107;SDS011;61559;50.476;15.588;2022-10-31T11:57:25;15.50;;;9.00;;
73107;SDS011;61559;50.476;15.588;2022-10-31T11:59:58;14.00;;;8.30;;
73107;SDS011;61559;50.476;15.588;2022-10-31T12:02:31;14.60;;;8.40;;
73107;SDS011;61559;50.476;15.588;2022-10-31T12:05:04;16.10;;;8.90;;
73107;SDS011;61559;50.476;15.588;2022-10-31T12:07:48;14.00;;;8.00;;
73107;SDS011;61559;50.476;15.588;2022-10-31T12:10:20;12.70;;;9.00;;
73107;SDS011;61559;50.476;15.588;2022-10-31T12:13:00;14.00;;;8.60;;
73107;SDS011;61559;50.476;15.588;2022-10-31T12:15:44;11.70;;;8.10;;
73107;SDS011;61559;50.476;15.588;2022-10-31T12:18:28;16.70;;;8.40;;
73107;SDS011;61559;50.476;15.588;2022-10-31T12:21:10;13.80;;;8.70;;
73107;SDS011;61559;50.476;15.588;2022-10-31T12:23:55;14.80;;;9.00;;
73107;SDS011;61559;50.476;15.588;2022-10-31T12:29:11;12.70;;;8.40;;
73107;SDS011;61559;50.476;15.588;2022-10-31T12:31:53;13.50;;;8.20;;
73107;SDS011;61559;50.476;15.588;2022-10-31T12:34:47;12.00;;;8.30;;
73107;SDS011;61559;50.476;15.588;2022-10-31T12:37:35;15.10;;;8.70;;
73107;SDS011;61559;50.476;15.588;2022-10-31T12:40:23;15.00;;;8.80;;
73107;SDS011;61559;50.476;15.588;2022-10-31T12:43:05;16.40;;;9.00;;
73107;SDS011;61559;50.476;15.588;2022-10-31T12:45:53;15.80;;;8.80;;
73107;SDS011;61559;50.476;15.588;2022-10-31T12:48:33;14.40;;;9.00;;
73107;SDS011;61559;50.476;15.588;2022-10-31T12:51:21;13.30;;;9.00;;
73107;SDS011;61559;50.476;15.588;2022-10-31T12:54:09;15.20;;;9.30;;
73107;SDS011;61559;50.476;15.588;2022-10-31T12:56:56;13.70;;;9.10;;
73107;SDS011;61559;50.476;15.588;2022-10-31T12:59:37;18.50;;;9.90;;
73107;SDS011;61559;50.476;15.588;2022-10-31T13:02:16;14.10;;;9.60;;
73107;SDS011;61559;50.476;15.588;2022-10-31T13:04:53;15.30;;;9.90;;
73107;SDS011;61559;50.476;15.588;2022-10-31T13:07:27;13.90;;;9.10;;
73107;SDS011;61559;50.476;15.588;2022-10-31T13:10:03;13.60;;;9.30;;
73107;SDS011;61559;50.476;15.588;2022-10-31T13:12:45;15.20;;;9.50;;
73107;SDS011;61559;50.476;15.588;2022-10-31T13:15:20;17.00;;;9.40;;
73107;SDS011;61559;50.476;15.588;2022-10-31T13:17:56;15.90;;;9.70;;
73107;SDS011;61559;50.476;15.588;2022-10-31T13:20:30;14.00;;;9.20;;
73107;SDS011;61559;50.476;15.588;2022-10-31T13:23:05;14.80;;;9.90;;
73107;SDS011;61559;50.476;15.588;2022-10-31T13:26:03;14.40;;;9.40;;
73107;SDS011;61559;50.476;15.588;2022-10-31T13:28:40;12.70;;;9.60;;
73107;SDS011;61559;50.476;15.588;2022-10-31T13:31:15;16.70;;;10.80;;
73107;SDS011;61559;50.476;15.588;2022-10-31T13:33:48;16.00;;;9.90;;
73107;SDS011;61559;50.476;15.588;2022-10-31T13:36:23;19.10;;;11.50;;
73107;SDS011;61559;50.476;15.588;2022-10-31T13:39:03;17.00;;;10.50;;
73107;SDS011;61559;50.476;15.588;2022-10-31T13:41:46;19.80;;;11.80;;
73107;SDS011;61559;50.476;15.588;2022-10-31T13:44:21;19.60;;;11.30;;
73107;SDS011;61559;50.476;15.588;2022-10-31T13:46:54;16.30;;;11.50;;
73107;SDS011;61559;50.476;15.588;2022-10-31T13:49:36;17.10;;;11.30;;
73107;SDS011;61559;50.476;15.588;2022-10-31T13:52:15;20.90;;;12.70;;
73107;SDS011;61559;50.476;15.588;2022-10-31T13:54:59;21.10;;;12.50;;
73107;SDS011;61559;50.476;15.588;2022-10-31T13:57:31;19.00;;;11.60;;
73107;SDS011;61559;50.476;15.588;2022-10-31T14:00:22;19.80;;;12.00;;
73107;SDS011;61559;50.476;15.588;2022-10-31T14:02:55;22.30;;;11.60;;
73107;SDS011;61559;50.476;15.588;2022-10-31T14:05:28;18.90;;;11.80;;
73107;SDS011;61559;50.476;15.588;2022-10-31T14:08:02;16.50;;;10.20;;
73107;SDS011;61559;50.476;15.588;2022-10-31T14:10:36;20.00;;;11.70;;
73107;SDS011;61559;50.476;15.588;2022-10-31T14:13:18;18.30;;;11.60;;
73107;SDS011;61559;50.476;15.588;2022-10-31T14:15:54;19.70;;;11.50;;
73107;SDS011;61559;50.476;15.588;2022-10-31T14:18:28;18.20;;;11.90;;
73107;SDS011;61559;50.476;15.588;2022-10-31T14:21:01;21.60;;;11.90;;
73107;SDS011;61559;50.476;15.588;2022-10-31T14:23:45;18.90;;;12.80;;
73107;SDS011;61559;50.476;15.588;2022-10-31T14:26:30;18.30;;;11.50;;
73107;SDS011;61559;50.476;15.588;2022-10-31T14:29:24;18.90;;;12.20;;
73107;SDS011;61559;50.476;15.588;2022-10-31T14:32:04;19.10;;;12.10;;
73107;SDS011;61559;50.476;15.588;2022-10-31T14:34:43;23.10;;;12.60;;
73107;SDS011;61559;50.476;15.588;2022-10-31T14:37:37;19.40;;;11.40;;
73107;SDS011;61559;50.476;15.588;2022-10-31T14:40:26;17.60;;;11.70;;
73107;SDS011;61559;50.476;15.588;2022-10-31T14:43:10;20.30;;;12.50;;
73107;SDS011;61559;50.476;15.588;2022-10-31T14:45:55;17.80;;;10.80;;
73107;SDS011;61559;50.476;15.588;2022-10-31T14:51:30;16.30;;;10.40;;
73107;SDS011;61559;50.476;15.588;2022-10-31T14:54:11;18.90;;;11.60;;
73107;SDS011;61559;50.476;15.588;2022-10-31T14:56:58;19.90;;;11.50;;
73107;SDS011;61559;50.476;15.588;2022-10-31T14:59:35;31.00;;;11.40;;
73107;SDS011;61559;50.476;15.588;2022-10-31T15:02:13;23.80;;;11.70;;
73107;SDS011;61559;50.476;15.588;2022-10-31T15:04:47;20.10;;;12.10;;
73107;SDS011;61559;50.476;15.588;2022-10-31T15:07:21;20.50;;;12.50;;
73107;SDS011;61559;50.476;15.588;2022-10-31T15:09:57;21.40;;;12.70;;
73107;SDS011;61559;50.476;15.588;2022-10-31T15:12:29;21.50;;;12.00;;
73107;SDS011;61559;50.476;15.588;2022-10-31T15:15:11;22.40;;;11.70;;
73107;SDS011;61559;50.476;15.588;2022-10-31T15:17:47;20.80;;;12.70;;
73107;SDS011;61559;50.476;15.588;2022-10-31T15:20:22;24.30;;;13.40;;
73107;SDS011;61559;50.476;15.588;2022-10-31T15:22:55;24.30;;;13.70;;
73107;SDS011;61559;50.476;15.588;2022-10-31T15:25:30;23.60;;;13.60;;
73107;SDS011;61559;50.476;15.588;2022-10-31T15:28:12;23.90;;;13.40;;
73107;SDS011;61559;50.476;15.588;2022-10-31T15:30:50;22.90;;;13.10;;
73107;SDS011;61559;50.476;15.588;2022-10-31T15:33:24;23.00;;;13.10;;
73107;SDS011;61559;50.476;15.588;2022-10-31T15:36:05;23.40;;;13.60;;
73107;SDS011;61559;50.476;15.588;2022-10-31T15:38:56;24.30;;;15.00;;
73107;SDS011;61559;50.476;15.588;2022-10-31T15:41:31;28.50;;;15.40;;
73107;SDS011;61559;50.476;15.588;2022-10-31T15:44:11;27.50;;;15.60;;
73107;SDS011;61559;50.476;15.588;2022-10-31T15:46:44;29.60;;;18.70;;
73107;SDS011;61559;50.476;15.588;2022-10-31T15:49:31;33.00;;;19.00;;
73107;SDS011;61559;50.476;15.588;2022-10-31T15:52:07;37.60;;;23.00;;
73107;SDS011;61559;50.476;15.588;2022-10-31T15:54:46;40.40;;;22.40;;
73107;SDS011;61559;50.476;15.588;2022-10-31T15:57:19;38.50;;;22.70;;
73107;SDS011;61559;50.476;15.588;2022-10-31T15:59:51;37.30;;;20.90;;
73107;SDS011;61559;50.476;15.588;2022-10-31T16:02:24;33.60;;;18.40;;
73107;SDS011;61559;50.476;15.588;2022-10-31T16:04:58;30.40;;;17.00;;
73107;SDS011;61559;50.476;15.588;2022-10-31T16:07:30;40.50;;;19.50;;
73107;SDS011;61559;50.476;15.588;2022-10-31T16:10:03;29.40;;;17.60;;
73107;SDS011;61559;50.476;15.588;2022-10-31T16:12:50;34.30;;;18.70;;
73107;SDS011;61559;50.476;15.588;2022-10-31T16:15:22;32.10;;;19.10;;
73107;SDS011;61559;50.476;15.588;2022-10-31T16:17:53;34.50;;;18.60;;
73107;SDS011;61559;50.476;15.588;2022-10-31T16:20:28;31.70;;;17.60;;
73107;SDS011;61559;50.476;15.588;2022-10-31T16:23:01;31.30;;;18.30;;
73107;SDS011;61559;50.476;15.588;2022-10-31T16:25:35;30.60;;;18.00;;
73107;SDS011;61559;50.476;15.588;2022-10-31T16:28:13;27.70;;;16.30;;
73107;SDS011;61559;50.476;15.588;2022-10-31T16:30:46;32.30;;;17.80;;
73107;SDS011;61559;50.476;15.588;2022-10-31T16:33:27;29.40;;;17.30;;
73107;SDS011;61559;50.476;15.588;2022-10-31T16:36:28;51.40;;;27.70;;
73107;SDS011;61559;50.476;15.588;2022-10-31T16:39:04;50.10;;;26.10;;
73107;SDS011;61559;50.476;15.588;2022-10-31T16:41:35;45.10;;;23.50;;
73107;SDS011;61559;50.476;15.588;2022-10-31T16:44:14;46.60;;;24.30;;